createdAt,value
2022-08-07T00:01:44.540Z,13.69
2022-08-07T00:04:05.871Z,13.74
2022-08-07T00:06:33.982Z,13.58
2022-08-07T00:09:16.987Z,13.54
2022-08-07T00:11:55.510Z,13.46
2022-08-07T00:14:25.452Z,13.49
2022-08-07T00:17:00.091Z,13.45
2022-08-07T00:19:59.723Z,13.34
2022-08-07T00:22:24.952Z,13.23
2022-08-07T00:25:04.896Z,13.29
2022-08-07T00:27:51.791Z,13.22
2022-08-07T00:30:26.810Z,13.19
2022-08-07T00:32:55.626Z,13.29
2022-08-07T00:35:23.066Z,13.32
2022-08-07T00:37:50.837Z,13.36
2022-08-07T00:40:36.692Z,13.12
2022-08-07T00:43:09.969Z,13.09
2022-08-07T00:45:39.103Z,13.24
2022-08-07T00:48:18.220Z,13.28
2022-08-07T00:50:50.483Z,13.02
2022-08-07T00:53:20.227Z,13.13
2022-08-07T00:56:00.415Z,13.14
2022-08-07T00:58:29.107Z,13.00
2022-08-07T01:00:55.945Z,12.91
2022-08-07T01:03:55.485Z,12.89
2022-08-07T01:06:12.969Z,12.75
2022-08-07T01:08:43.032Z,12.64
2022-08-07T01:12:27.622Z,12.76
2022-08-07T01:14:05.570Z,12.79
2022-08-07T01:16:32.422Z,12.91
2022-08-07T01:18:59.585Z,12.83
2022-08-07T01:21:28.464Z,12.87
2022-08-07T01:23:58.035Z,12.81
2022-08-07T01:26:26.030Z,12.72
2022-08-07T01:28:54.574Z,13.05
2022-08-07T01:31:30.012Z,12.84
2022-08-07T01:34:09.350Z,12.98
2022-08-07T01:36:40.551Z,13.26
2022-08-07T01:39:14.051Z,13.03
2022-08-07T01:42:07.622Z,12.96
2022-08-07T01:44:34.152Z,13.47
2022-08-07T01:48:16.447Z,13.50
2022-08-07T01:49:49.553Z,13.38
2022-08-07T01:52:24.689Z,13.28
2022-08-07T01:54:56.285Z,13.33
2022-08-07T01:58:01.325Z,13.40
2022-08-07T02:00:28.966Z,12.88
2022-08-07T02:03:18.299Z,13.17
2022-08-07T02:05:59.264Z,13.49
2022-08-07T02:08:29.458Z,13.30
2022-08-07T02:10:59.515Z,13.47
2022-08-07T02:13:57.841Z,13.36
2022-08-07T02:16:28.569Z,13.18
2022-08-07T02:19:02.427Z,13.12
2022-08-07T02:21:56.578Z,13.36
2022-08-07T02:24:23.307Z,13.32
2022-08-07T02:26:50.651Z,13.39
2022-08-07T02:29:21.803Z,13.35
2022-08-07T02:31:50.505Z,13.49
2022-08-07T02:34:18.591Z,13.35
2022-08-07T02:36:52.071Z,13.01
2022-08-07T02:39:42.921Z,12.84
2022-08-07T02:42:10.083Z,12.46
2022-08-07T02:44:48.770Z,13.05
2022-08-07T02:47:23.476Z,13.08
2022-08-07T02:49:58.349Z,13.29
2022-08-07T02:52:38.729Z,13.22
2022-08-07T02:55:28.537Z,13.05
2022-08-07T02:58:10.892Z,12.50
2022-08-07T03:00:41.292Z,12.35
2022-08-07T03:03:21.053Z,12.16
2022-08-07T03:05:56.241Z,12.14
2022-08-07T03:08:26.894Z,12.02
2022-08-07T03:10:58.525Z,11.64
2022-08-07T03:13:39.308Z,11.70
2022-08-07T03:16:18.539Z,11.65
2022-08-07T03:18:51.046Z,11.72
2022-08-07T03:21:19.023Z,12.28
2022-08-07T03:24:17.955Z,12.02
2022-08-07T03:26:36.220Z,11.93
2022-08-07T03:29:19.814Z,11.79
2022-08-07T03:31:49.873Z,11.65
2022-08-07T03:34:22.324Z,11.48
2022-08-07T03:36:54.093Z,11.56
2022-08-07T03:39:45.945Z,11.86
2022-08-07T03:42:12.327Z,11.68
2022-08-07T03:44:40.481Z,11.87
2022-08-07T03:47:13.187Z,11.73
2022-08-07T03:49:51.889Z,11.74
2022-08-07T03:52:26.510Z,11.67
2022-08-07T03:55:06.890Z,11.74
2022-08-07T03:58:33.428Z,11.86
2022-08-07T04:00:29.136Z,11.75
2022-08-07T04:02:59.430Z,11.72
2022-08-07T04:05:40.578Z,11.70
2022-08-07T04:08:21.191Z,11.78
2022-08-07T04:10:53.956Z,11.84
2022-08-07T04:13:27.798Z,12.16
2022-08-07T04:15:55.188Z,12.40
2022-08-07T04:18:58.033Z,12.29
2022-08-07T04:21:08.730Z,12.11
2022-08-07T04:23:43.973Z,12.00
2022-08-07T04:26:28.670Z,11.90
2022-08-07T04:28:56.694Z,12.15
2022-08-07T04:31:38.971Z,12.31
2022-08-07T04:34:16.741Z,12.53
2022-08-07T04:36:45.458Z,12.47
2022-08-07T04:39:17.659Z,12.56
2022-08-07T04:41:48.301Z,12.45
2022-08-07T04:44:18.961Z,12.04
2022-08-07T04:47:04.319Z,12.21
2022-08-07T04:49:57.384Z,12.19
2022-08-07T04:52:51.840Z,12.23
2022-08-07T04:58:12.325Z,12.22
2022-08-07T04:59:18.379Z,12.25
2022-08-07T05:01:42.538Z,12.57
2022-08-07T05:04:22.414Z,12.47
2022-08-07T05:07:09.643Z,12.28
2022-08-07T05:09:55.300Z,12.38
2022-08-07T05:12:30.774Z,12.31
2022-08-07T05:15:23.348Z,12.33
2022-08-07T05:18:08.819Z,12.37
2022-08-07T05:20:42.887Z,12.51
2022-08-07T05:23:15.632Z,12.74
2022-08-07T05:26:15.514Z,12.73
2022-08-07T05:28:35.581Z,12.97
2022-08-07T05:31:04.071Z,12.96
2022-08-07T05:33:35.623Z,13.14
2022-08-07T05:36:07.727Z,13.34
2022-08-07T05:38:59.411Z,13.26
2022-08-07T05:42:01.512Z,13.22
2022-08-07T05:44:29.320Z,13.33
2022-08-07T05:46:58.335Z,13.29
2022-08-07T05:49:27.543Z,13.53
2022-08-07T05:52:11.415Z,13.58
2022-08-07T05:54:53.233Z,13.53
2022-08-07T05:57:26.722Z,13.61
2022-08-07T06:00:01.322Z,13.86
2022-08-07T06:02:40.723Z,14.06
2022-08-07T06:05:15.672Z,13.98
2022-08-07T06:08:30.340Z,14.15
2022-08-07T06:10:36.953Z,14.38
2022-08-07T06:13:05.838Z,14.36
2022-08-07T06:15:42.306Z,14.43
2022-08-07T06:18:14.087Z,15.08
2022-08-07T06:20:49.789Z,15.30
2022-08-07T06:23:46.628Z,15.13
2022-08-07T06:26:05.687Z,15.49
2022-08-07T06:28:33.910Z,15.76
2022-08-07T06:31:00.827Z,15.71
2022-08-07T06:33:29.584Z,16.14
2022-08-07T06:36:13.067Z,16.17
2022-08-07T06:38:59.162Z,16.38
2022-08-07T06:42:00.787Z,16.59
2022-08-07T06:44:51.610Z,17.07
2022-08-07T06:47:19.701Z,17.23
2022-08-07T06:49:50.758Z,17.60
2022-08-07T06:52:31.917Z,17.89
2022-08-07T06:55:34.050Z,18.21
2022-08-07T06:57:57.112Z,18.20
2022-08-07T07:00:31.010Z,18.79
2022-08-07T07:03:01.183Z,18.74
2022-08-07T07:06:02.385Z,19.11
2022-08-07T07:08:28.052Z,19.28
2022-08-07T07:10:57.306Z,19.48
2022-08-07T07:13:56.637Z,20.03
2022-08-07T07:16:27.566Z,20.21
2022-08-07T07:19:11.395Z,20.68
2022-08-07T07:22:11.961Z,19.97
2022-08-07T07:24:43.086Z,20.68
2022-08-07T07:27:35.468Z,21.12
2022-08-07T07:30:09.866Z,21.34
2022-08-07T07:32:40.571Z,20.36
2022-08-07T07:35:11.770Z,21.80
2022-08-07T07:37:49.776Z,20.34
2022-08-07T07:40:26.223Z,21.22
2022-08-07T07:42:55.906Z,21.93
2022-08-07T07:46:36.618Z,22.20
2022-08-07T07:48:24.059Z,22.35
2022-08-07T07:51:07.446Z,22.02
2022-08-07T07:53:51.837Z,22.85
2022-08-07T07:56:30.005Z,22.24
2022-08-07T07:59:01.597Z,22.13
2022-08-07T08:02:02.299Z,22.85
2022-08-07T08:04:19.048Z,23.10
2022-08-07T08:06:51.986Z,24.42
2022-08-07T08:09:23.252Z,24.63
2022-08-07T08:12:02.577Z,24.53
2022-08-07T08:14:36.575Z,24.15
2022-08-07T08:17:55.709Z,24.34
2022-08-07T08:20:17.175Z,24.52
2022-08-07T08:23:08.337Z,23.89
2022-08-07T08:25:56.906Z,24.53
2022-08-07T08:28:37.800Z,24.78
2022-08-07T08:31:15.674Z,24.91
2022-08-07T08:33:49.391Z,25.40
2022-08-07T08:36:18.564Z,25.84
2022-08-07T08:38:55.559Z,24.95
2022-08-07T08:41:58.720Z,26.00
2022-08-07T08:44:44.990Z,25.03
2022-08-07T08:47:31.434Z,25.25
2022-08-07T08:50:39.757Z,26.05
2022-08-07T08:53:32.505Z,26.67
2022-08-07T08:56:26.135Z,25.81
2022-08-07T08:59:08.671Z,24.69
2022-08-07T09:01:59.616Z,25.15
2022-08-07T09:04:40.791Z,24.77
2022-08-07T09:07:34.005Z,23.68
2022-08-07T09:10:47.383Z,25.82
2022-08-07T09:13:35.256Z,24.12
2022-08-07T09:16:24.755Z,24.81
2022-08-07T09:19:52.879Z,26.92
2022-08-07T09:24:35.241Z,26.81
2022-08-07T09:25:21.591Z,26.93
2022-08-07T09:29:22.311Z,27.00
2022-08-07T09:31:20.361Z,26.86
2022-08-07T09:34:13.603Z,27.68
2022-08-07T09:37:04.561Z,26.21
2022-08-07T09:39:55.212Z,27.80
2022-08-07T09:43:10.825Z,28.21
2022-08-07T09:47:52.064Z,26.26
2022-08-07T09:50:01.779Z,27.45
2022-08-07T09:52:34.427Z,27.80
2022-08-07T09:55:29.240Z,27.95
2022-08-07T09:58:38.770Z,27.82
2022-08-07T10:01:51.152Z,28.29
2022-08-07T10:04:47.537Z,27.26
2022-08-07T10:07:53.370Z,27.98
2022-08-07T10:11:16.986Z,28.12
2022-08-07T10:14:02.826Z,26.10
2022-08-07T10:16:49.773Z,28.94
2022-08-07T10:19:30.193Z,29.13
2022-08-07T10:22:45.222Z,28.77
2022-08-07T10:25:22.824Z,28.20
2022-08-07T10:28:20.210Z,26.67
2022-08-07T10:31:05.860Z,28.65
2022-08-07T10:34:06.968Z,28.91
2022-08-07T10:36:59.041Z,28.46
2022-08-07T10:40:03.079Z,29.12
2022-08-07T10:43:00.847Z,29.38
2022-08-07T10:45:45.057Z,28.08
2022-08-07T10:48:46.518Z,27.77
2022-08-07T10:52:02.015Z,27.69
2022-08-07T10:54:53.438Z,28.88
2022-08-07T10:57:46.069Z,28.80
2022-08-07T11:00:36.393Z,29.01
2022-08-07T11:03:19.649Z,27.92
2022-08-07T11:05:58.612Z,25.51
2022-08-07T11:08:54.669Z,27.56
2022-08-07T11:11:27.502Z,28.52
2022-08-07T11:14:46.452Z,28.86
2022-08-07T11:17:10.676Z,29.91
2022-08-07T11:19:51.908Z,28.76
2022-08-07T11:22:32.311Z,29.93
2022-08-07T11:25:17.073Z,30.45
2022-08-07T11:28:15.496Z,30.04
2022-08-07T11:30:52.495Z,29.50
2022-08-07T11:33:53.809Z,29.62
2022-08-07T11:36:45.885Z,29.51
2022-08-07T11:39:24.937Z,29.28
2022-08-07T11:42:19.188Z,29.20
2022-08-07T11:44:58.654Z,31.03
2022-08-07T11:47:55.808Z,29.55
2022-08-07T11:51:09.636Z,29.09
2022-08-07T11:54:01.633Z,29.62
2022-08-07T11:56:52.276Z,29.60
2022-08-07T12:00:11.670Z,29.86
2022-08-07T12:03:44.563Z,28.03
2022-08-07T12:06:51.638Z,28.54
2022-08-07T12:09:42.939Z,27.15
2022-08-07T12:12:18.678Z,29.64
2022-08-07T12:15:01.344Z,30.44
2022-08-07T12:17:40.033Z,30.45
2022-08-07T12:20:35.080Z,30.70
2022-08-07T12:24:07.121Z,30.00
2022-08-07T12:26:59.225Z,30.65
2022-08-07T12:29:37.847Z,29.76
2022-08-07T12:32:20.651Z,28.87
2022-08-07T12:34:53.406Z,30.56
2022-08-07T12:37:28.541Z,30.98
2022-08-07T12:40:44.115Z,30.69
2022-08-07T12:43:03.844Z,29.84
2022-08-07T12:45:55.289Z,28.96
2022-08-07T12:48:41.567Z,29.51
2022-08-07T12:51:24.023Z,28.85
2022-08-07T12:54:54.615Z,27.23
2022-08-07T12:57:39.015Z,29.15
2022-08-07T13:00:32.457Z,29.86
2022-08-07T13:04:02.120Z,29.99
2022-08-07T13:07:00.228Z,30.23
2022-08-07T13:10:22.028Z,29.80
2022-08-07T13:12:43.753Z,29.00
2022-08-07T13:15:45.535Z,28.79
2022-08-07T13:18:38.836Z,29.55
2022-08-07T13:21:50.463Z,30.72
2022-08-07T13:24:35.757Z,28.82
2022-08-07T13:28:10.742Z,30.69
2022-08-07T13:30:39.682Z,30.60
2022-08-07T13:34:31.596Z,30.86
2022-08-07T13:36:26.124Z,30.19
2022-08-07T13:39:13.047Z,30.68
2022-08-07T13:41:55.080Z,29.82
2022-08-07T13:44:26.411Z,30.28
2022-08-07T13:46:59.520Z,31.35
2022-08-07T13:50:33.065Z,29.16
2022-08-07T13:52:32.605Z,28.36
2022-08-07T13:55:13.162Z,29.31
2022-08-07T13:58:02.011Z,30.57
2022-08-07T14:00:50.378Z,31.04
2022-08-07T14:03:29.608Z,30.86
2022-08-07T14:06:13.925Z,30.95
2022-08-07T14:08:53.440Z,30.05
2022-08-07T14:11:23.269Z,30.00
2022-08-07T14:13:57.661Z,30.16
2022-08-07T14:16:31.269Z,31.49
2022-08-07T14:19:00.534Z,31.65
2022-08-07T14:22:02.969Z,31.11
2022-08-07T14:24:50.450Z,30.79
2022-08-07T14:28:10.937Z,29.66
2022-08-07T14:30:14.999Z,31.30
2022-08-07T14:33:04.392Z,30.53
2022-08-07T14:35:43.147Z,31.20
2022-08-07T14:38:26.296Z,30.46
2022-08-07T14:41:03.949Z,30.53
2022-08-07T14:43:58.261Z,30.72
2022-08-07T14:46:31.434Z,29.64
2022-08-07T14:49:55.701Z,30.31
2022-08-07T14:52:03.861Z,30.14
2022-08-07T14:54:41.751Z,29.98
2022-08-07T14:57:19.184Z,30.48
2022-08-07T15:00:03.779Z,30.97
2022-08-07T15:02:34.490Z,30.19
2022-08-07T15:05:03.441Z,29.90
2022-08-07T15:07:45.525Z,29.77
2022-08-07T15:10:25.057Z,29.25
2022-08-07T15:12:58.501Z,29.64
2022-08-07T15:15:42.037Z,28.84
2022-08-07T15:18:28.669Z,28.23
2022-08-07T15:25:12.961Z,30.12
2022-08-07T15:26:51.467Z,29.49
2022-08-07T15:30:09.799Z,29.42
2022-08-07T15:34:58.315Z,30.16
2022-08-07T15:38:18.009Z,29.41
2022-08-07T15:40:34.467Z,29.38
2022-08-07T15:43:53.638Z,28.26
2022-08-07T15:46:32.429Z,29.07
2022-08-07T15:49:13.103Z,29.91
2022-08-07T15:54:33.934Z,28.68
2022-08-07T15:57:02.102Z,28.58
2022-08-07T15:59:39.679Z,28.88
2022-08-07T16:02:24.003Z,28.14
2022-08-07T16:05:03.581Z,27.98
2022-08-07T16:08:31.926Z,28.03
2022-08-07T16:11:00.542Z,27.62
2022-08-07T16:13:58.538Z,27.80
2022-08-07T16:16:57.128Z,28.23
2022-08-07T16:19:42.196Z,28.95
2022-08-07T16:22:55.464Z,28.71
2022-08-07T16:25:54.340Z,28.72
2022-08-07T16:30:07.340Z,28.55
2022-08-07T16:31:57.454Z,28.12
2022-08-07T16:34:39.637Z,28.19
2022-08-07T16:38:04.283Z,27.48
2022-08-07T16:40:28.853Z,27.32
2022-08-07T16:43:13.653Z,26.88
2022-08-07T16:46:34.638Z,26.84
2022-08-07T16:49:04.240Z,27.47
2022-08-07T16:52:02.050Z,27.73
2022-08-07T16:54:32.939Z,27.40
2022-08-07T16:57:28.836Z,27.32
2022-08-07T17:00:15.114Z,27.08
2022-08-07T17:02:53.048Z,27.20
2022-08-07T17:06:28.212Z,27.12
2022-08-07T17:09:08.808Z,26.47
2022-08-07T17:12:04.139Z,26.43
2022-08-07T17:14:32.270Z,26.12
2022-08-07T17:17:02.211Z,26.05
2022-08-07T17:20:02.655Z,25.88
2022-08-07T17:22:30.183Z,25.64
2022-08-07T17:25:08.253Z,25.62
2022-08-07T17:27:56.104Z,25.50
2022-08-07T17:30:26.612Z,25.42
2022-08-07T17:34:09.445Z,25.31
2022-08-07T17:36:20.354Z,25.10
2022-08-07T17:38:50.423Z,25.05
2022-08-07T17:42:02.104Z,24.87
2022-08-07T17:44:41.455Z,24.74
2022-08-07T17:47:41.783Z,24.59
2022-08-07T17:50:18.925Z,24.51
2022-08-07T17:52:58.914Z,24.43
2022-08-07T17:56:00.340Z,24.29
2022-08-07T17:58:31.029Z,24.27
2022-08-07T18:00:59.127Z,24.13
2022-08-07T18:03:27.693Z,24.02
2022-08-07T18:06:01.791Z,23.90
2022-08-07T18:08:36.456Z,23.95
2022-08-07T18:12:16.204Z,23.74
2022-08-07T18:14:45.026Z,23.56
2022-08-07T18:18:36.599Z,23.47
2022-08-07T18:21:10.624Z,23.30
2022-08-07T18:23:43.207Z,23.18
2022-08-07T18:26:15.224Z,23.08
2022-08-07T18:28:57.708Z,23.03
2022-08-07T18:31:40.475Z,22.91
2022-08-07T18:34:37.838Z,22.84
2022-08-07T18:36:54.366Z,22.77
2022-08-07T18:40:05.251Z,22.71
2022-08-07T18:42:30.575Z,22.65
2022-08-07T18:45:45.110Z,22.55
2022-08-07T18:50:05.572Z,22.34
2022-08-07T18:51:15.146Z,22.29
2022-08-07T18:54:00.670Z,22.18
2022-08-07T18:56:37.650Z,22.14
2022-08-07T18:59:47.208Z,22.01
2022-08-07T19:02:42.000Z,21.81
2022-08-07T19:05:20.411Z,21.77
2022-08-07T19:07:56.966Z,21.73
2022-08-07T19:10:49.832Z,21.64
2022-08-07T19:13:21.644Z,21.42
2022-08-07T19:17:01.494Z,21.40
2022-08-07T19:18:58.206Z,21.25
2022-08-07T19:21:53.508Z,21.24
2022-08-07T19:24:38.007Z,21.30
2022-08-07T19:28:30.669Z,21.17
2022-08-07T19:30:56.578Z,21.08
2022-08-07T19:32:51.210Z,20.90
2022-08-07T19:35:22.669Z,20.81
2022-08-07T19:37:55.441Z,20.67
2022-08-07T19:40:31.696Z,20.57
2022-08-07T19:43:02.413Z,20.39
2022-08-07T19:46:06.249Z,20.52
2022-08-07T19:48:24.565Z,20.53
2022-08-07T19:50:53.383Z,20.52
2022-08-07T19:54:32.523Z,20.48
2022-08-07T19:56:12.217Z,20.36
2022-08-07T19:58:52.825Z,20.49
2022-08-07T20:01:19.799Z,20.54
2022-08-07T20:03:49.040Z,20.52
2022-08-07T20:06:30.757Z,20.46
2022-08-07T20:09:01.852Z,20.48
2022-08-07T20:12:22.130Z,20.44
2022-08-07T20:14:23.097Z,20.46
2022-08-07T20:16:54.478Z,20.47
2022-08-07T20:19:25.161Z,20.41
2022-08-07T20:21:57.029Z,20.32
2022-08-07T20:24:30.065Z,20.33
2022-08-07T20:26:58.988Z,20.23
2022-08-07T20:29:48.998Z,20.27
2022-08-07T20:32:22.259Z,20.24
2022-08-07T20:34:52.115Z,20.19
2022-08-07T20:37:23.794Z,20.16
2022-08-07T20:40:02.958Z,20.05
2022-08-07T20:42:32.174Z,19.81
2022-08-07T20:45:01.224Z,19.79
2022-08-07T20:47:55.163Z,19.70
2022-08-07T20:50:18.336Z,19.59
2022-08-07T20:52:51.313Z,19.67
2022-08-07T20:55:23.485Z,19.60
2022-08-07T20:58:03.547Z,19.70
2022-08-07T21:00:42.815Z,19.54
2022-08-07T21:03:11.994Z,19.58
2022-08-07T21:05:51.380Z,19.52
2022-08-07T21:08:32.427Z,19.46
2022-08-07T21:11:10.535Z,19.41
2022-08-07T21:13:43.748Z,19.42
2022-08-07T21:16:26.103Z,19.40
2022-08-07T21:18:57.496Z,19.31
2022-08-07T21:21:27.222Z,19.36
2022-08-07T21:24:10.199Z,19.30
2022-08-07T21:26:55.698Z,19.16
2022-08-07T21:29:23.529Z,19.05
2022-08-07T21:32:42.730Z,18.96
2022-08-07T21:35:01.461Z,19.02
2022-08-07T21:37:59.140Z,18.96
2022-08-07T21:40:36.008Z,18.95
2022-08-07T21:43:08.153Z,18.87
2022-08-07T21:46:10.998Z,18.87
2022-08-07T21:48:41.250Z,18.84
2022-08-07T21:51:31.990Z,18.52
2022-08-07T21:54:18.711Z,18.72
2022-08-07T21:56:49.488Z,18.75
2022-08-07T21:59:22.048Z,18.62
2022-08-07T22:02:11.246Z,18.56
2022-08-07T22:04:53.914Z,18.44
2022-08-07T22:07:21.038Z,18.42
2022-08-07T22:09:54.387Z,18.39
2022-08-07T22:12:31.640Z,18.39
2022-08-07T22:15:02.345Z,18.31
2022-08-07T22:17:36.157Z,18.35
2022-08-07T22:20:23.141Z,18.34
2022-08-07T22:22:52.674Z,18.24
2022-08-07T22:25:36.186Z,18.20
2022-08-07T22:28:29.957Z,18.20
2022-08-07T22:30:57.122Z,18.06
2022-08-07T22:33:52.619Z,18.11
2022-08-07T22:36:29.277Z,17.71
2022-08-07T22:38:59.300Z,17.37
2022-08-07T22:42:03.833Z,17.39
2022-08-07T22:44:22.496Z,17.80
2022-08-07T22:47:09.401Z,17.91
2022-08-07T22:49:56.565Z,17.83
2022-08-07T22:52:37.811Z,17.76
2022-08-07T22:55:22.394Z,17.82
2022-08-07T22:57:52.678Z,17.76
2022-08-07T23:00:28.594Z,17.70
2022-08-07T23:02:55.639Z,17.49
2022-08-07T23:06:10.127Z,16.91
2022-08-07T23:08:33.216Z,16.75
2022-08-07T23:11:26.969Z,16.87
2022-08-07T23:14:10.713Z,16.72
2022-08-07T23:16:55.393Z,16.68
2022-08-07T23:19:52.103Z,16.60
2022-08-07T23:22:31.135Z,16.66
2022-08-07T23:25:20.953Z,16.56
2022-08-07T23:28:21.280Z,16.41
2022-08-07T23:31:05.645Z,16.36
2022-08-07T23:34:34.062Z,16.24
2022-08-07T23:36:43.257Z,16.27
2022-08-07T23:39:17.887Z,16.17
2022-08-07T23:42:05.384Z,16.14
2022-08-07T23:44:32.481Z,16.73
2022-08-07T23:47:00.816Z,16.70
2022-08-07T23:49:51.202Z,16.67
2022-08-07T23:53:00.637Z,16.70
2022-08-07T23:55:53.449Z,16.68
2022-08-07T23:58:18.476Z,16.81
